Hypoluxo, Florida
Current Conditions -  °F | °C
As of 2:53 AM on Monday 24 Nov 2014 (Local Time) from KPBI Reporting Station
Scattered Clouds Scattered Clouds  
Wind Chill: 26°   Ceiling: Unl
Heat Index: 28°   Visibility: 10mi
Dew Point: 24°   Wind: 7mph
Humidity: 88%   Direction: 170°S
Pressure: 29.93"   Gusts: NA
Location:  26.5758°N, 80.0835°W
Report Text: KPBI 240753Z 17006KT 10SM FEW014 SCT050 26/24 A2993 RMK AO2 RAB0659E10B38E47 SLP135 P0001 T02610239
Loading
Personal Weather Stations






























Interactive Weather Map New forecast layout! Learn more

10-Day Weather Forecast

Advertisements
Track Severe Weather on mobile